UUEE/SVO METAR and TAF weather

Enter ICAO airport designator
Station Type Date Time Source
UUEE METAR 2022/06/27 09:00 UTC NOAA

UUEE 270900Z 29006MPS 250V340 CAVOK 31/16 Q1020 R24L/CLRD62 R24C/CLRD62 NOSIG


Station Type Date Time Source
UUEE Decoded METAR 2022/06/27 09:00 UTC NOAA

Moscow / Sheremet'Ye , Russia (UUEE) 55-59N 037-30E
Jun 27, 2022 - 05:00 AM EDT / 2022.06.27 0900 UTC
Wind: from the WNW (290 degrees) at 13 MPH (12 KT) (direction variable):0
Visibility: greater than 7 mile(s):0
Temperature: 87 F (31 C)
Dew Point: 60 F (16 C)
Relative Humidity: 40%
Pressure (altimeter): 30.12 in. Hg (1020 hPa)
ob: UUEE 270900Z 29006MPS 250V340 CAVOK 31/16 Q1020 R24L/CLRD62 R24C/CLRD62 NOSIG
cycle: 9

Station Type Date Time Source
UUEE TAF 2022/06/27 09:23 UTC NOAA

TAF UUEE 270758Z 2709/2809 31003G08MPS 9999 SCT040 TX33/2712Z TN19/2801Z
TEMPO 2709/2716 36008G13MPS
BECMG 2722/2801 02005MPS

Example: see airport list